sensor_id;sensor_type;location;lat;lon;timestamp;pressure;altitude;pressure_sealevel;temperature;humidity
75146;BME280;63641;46.526;24.612;2022-10-26T00:00:50;97664.56;;;12.94;77.29
75146;BME280;63641;46.526;24.612;2022-10-26T00:03:18;97655.88;;;12.92;77.45
75146;BME280;63641;46.526;24.612;2022-10-26T00:05:45;97659.06;;;12.99;77.56
75146;BME280;63641;46.526;24.612;2022-10-26T00:08:12;97659.59;;;13.01;77.41
75146;BME280;63641;46.526;24.612;2022-10-26T00:10:38;97662.56;;;13.04;77.47
75146;BME280;63641;46.526;24.612;2022-10-26T00:13:09;97653.88;;;13.02;77.66
75146;BME280;63641;46.526;24.612;2022-10-26T00:15:39;97668.22;;;13.08;77.63
75146;BME280;63641;46.526;24.612;2022-10-26T00:18:07;97653.53;;;13.09;77.38
75146;BME280;63641;46.526;24.612;2022-10-26T00:20:34;97653.53;;;13.09;77.54
75146;BME280;63641;46.526;24.612;2022-10-26T00:23:01;97665.50;;;13.08;77.50
75146;BME280;63641;46.526;24.612;2022-10-26T00:25:28;97664.47;;;13.04;77.27
75146;BME280;63641;46.526;24.612;2022-10-26T00:27:54;97656.09;;;13.00;77.33
75146;BME280;63641;46.526;24.612;2022-10-26T00:30:21;97660.16;;;12.98;77.26
75146;BME280;63641;46.526;24.612;2022-10-26T00:32:48;97664.34;;;12.90;77.06
75146;BME280;63641;46.526;24.612;2022-10-26T00:35:15;97666.56;;;12.83;77.08
75146;BME280;63641;46.526;24.612;2022-10-26T00:37:54;97671.53;;;12.76;77.06
75146;BME280;63641;46.526;24.612;2022-10-26T00:40:26;97670.25;;;12.68;76.82
75146;BME280;63641;46.526;24.612;2022-10-26T00:42:52;97675.19;;;12.61;76.99
75146;BME280;63641;46.526;24.612;2022-10-26T00:45:22;97683.09;;;12.57;76.73
75146;BME280;63641;46.526;24.612;2022-10-26T00:47:59;97684.00;;;12.48;76.71
75146;BME280;63641;46.526;24.612;2022-10-26T00:52:57;97680.81;;;12.41;76.70
75146;BME280;63641;46.526;24.612;2022-10-26T00:55:29;97673.25;;;12.38;76.78
75146;BME280;63641;46.526;24.612;2022-10-26T00:57:58;97667.84;;;12.32;76.94
75146;BME280;63641;46.526;24.612;2022-10-26T01:00:25;97676.78;;;12.38;76.85
75146;BME280;63641;46.526;24.612;2022-10-26T01:02:54;97670.00;;;12.36;77.05
75146;BME280;63641;46.526;24.612;2022-10-26T01:05:21;97671.91;;;12.35;77.29
75146;BME280;63641;46.526;24.612;2022-10-26T01:07:50;97673.81;;;12.35;77.38
75146;BME280;63641;46.526;24.612;2022-10-26T01:10:17;97661.91;;;12.30;77.37
75146;BME280;63641;46.526;24.612;2022-10-26T01:12:44;97661.09;;;12.30;77.46
75146;BME280;63641;46.526;24.612;2022-10-26T01:15:12;97659.44;;;12.34;77.76
75146;BME280;63641;46.526;24.612;2022-10-26T01:17:54;97663.53;;;12.31;77.67
75146;BME280;63641;46.526;24.612;2022-10-26T01:23:33;97661.91;;;12.30;77.85
75146;BME280;63641;46.526;24.612;2022-10-26T01:31:40;97658.03;;;12.37;77.45
75146;BME280;63641;46.526;24.612;2022-10-26T01:34:24;97657.78;;;12.38;77.75
75146;BME280;63641;46.526;24.612;2022-10-26T01:36:57;97651.00;;;12.36;77.62
75146;BME280;63641;46.526;24.612;2022-10-26T01:39:46;97654.56;;;12.31;77.97
75146;BME280;63641;46.526;24.612;2022-10-26T01:42:15;97664.88;;;12.34;77.77
75146;BME280;63641;46.526;24.612;2022-10-26T01:44:47;97653.22;;;12.33;77.94
75146;BME280;63641;46.526;24.612;2022-10-26T01:47:19;97658.38;;;12.30;77.60
75146;BME280;63641;46.526;24.612;2022-10-26T01:49:50;97660.25;;;12.35;78.01
75146;BME280;63641;46.526;24.612;2022-10-26T01:52:18;97658.34;;;12.35;77.99
75146;BME280;63641;46.526;24.612;2022-10-26T01:54:45;97658.88;;;12.37;77.88
75146;BME280;63641;46.526;24.612;2022-10-26T01:57:17;97664.56;;;12.36;78.08
75146;BME280;63641;46.526;24.612;2022-10-26T02:08:06;97661.06;;;12.35;78.17
75146;BME280;63641;46.526;24.612;2022-10-26T02:13:37;97661.84;;;12.36;77.93
75146;BME280;63641;46.526;24.612;2022-10-26T02:16:29;97668.16;;;12.31;77.76
75146;BME280;63641;46.526;24.612;2022-10-26T02:19:24;97665.75;;;12.24;77.88
75146;BME280;63641;46.526;24.612;2022-10-26T02:22:01;97667.09;;;12.27;78.03
75146;BME280;63641;46.526;24.612;2022-10-26T02:24:32;97673.34;;;12.22;78.13
75146;BME280;63641;46.526;24.612;2022-10-26T02:27:00;97669.56;;;12.23;78.10
75146;BME280;63641;46.526;24.612;2022-10-26T02:29:30;97668.75;;;12.23;77.94
75146;BME280;63641;46.526;24.612;2022-10-26T02:31:59;97673.13;;;12.19;78.06
75146;BME280;63641;46.526;24.612;2022-10-26T02:34:28;97672.28;;;12.18;77.98
75146;BME280;63641;46.526;24.612;2022-10-26T02:36:57;97687.75;;;12.23;77.96
75146;BME280;63641;46.526;24.612;2022-10-26T02:39:25;97673.94;;;12.19;78.10
75146;BME280;63641;46.526;24.612;2022-10-26T02:41:55;97688.56;;;12.18;78.32
75146;BME280;63641;46.526;24.612;2022-10-26T02:44:25;97696.16;;;12.21;78.33
75146;BME280;63641;46.526;24.612;2022-10-26T02:46:54;97689.63;;;12.22;78.56
75146;BME280;63641;46.526;24.612;2022-10-26T02:49:21;97687.44;;;12.24;78.78
75146;BME280;63641;46.526;24.612;2022-10-26T02:51:57;97690.72;;;12.26;78.91
75146;BME280;63641;46.526;24.612;2022-10-26T02:57:19;97690.13;;;12.29;78.78
75146;BME280;63641;46.526;24.612;2022-10-26T02:59:50;97690.94;;;12.30;78.69
75146;BME280;63641;46.526;24.612;2022-10-26T03:02:18;97689.31;;;12.29;78.74
75146;BME280;63641;46.526;24.612;2022-10-26T03:04:48;97694.50;;;12.25;78.74
75146;BME280;63641;46.526;24.612;2022-10-26T03:07:20;97696.13;;;12.26;78.72
75146;BME280;63641;46.526;24.612;2022-10-26T03:09:47;97697.44;;;12.29;78.78
75146;BME280;63641;46.526;24.612;2022-10-26T03:12:13;97700.97;;;12.29;78.63
75146;BME280;63641;46.526;24.612;2022-10-26T03:14:40;97700.47;;;12.27;78.47
75146;BME280;63641;46.526;24.612;2022-10-26T03:17:07;97700.97;;;12.29;78.37
75146;BME280;63641;46.526;24.612;2022-10-26T03:19:34;97704.28;;;12.26;78.34
75146;BME280;63641;46.526;24.612;2022-10-26T03:22:00;97699.91;;;12.25;78.14
75146;BME280;63641;46.526;24.612;2022-10-26T03:24:27;97707.78;;;12.27;77.89
75146;BME280;63641;46.526;24.612;2022-10-26T03:26:53;97705.34;;;12.25;78.00
75146;BME280;63641;46.526;24.612;2022-10-26T03:29:24;97719.75;;;12.21;77.77
75146;BME280;63641;46.526;24.612;2022-10-26T03:31:51;97709.22;;;12.14;77.91
75146;BME280;63641;46.526;24.612;2022-10-26T03:34:20;97712.50;;;12.11;77.80
75146;BME280;63641;46.526;24.612;2022-10-26T03:36:47;97722.28;;;12.07;77.64
75146;BME280;63641;46.526;24.612;2022-10-26T03:39:14;97719.63;;;12.02;77.64
75146;BME280;63641;46.526;24.612;2022-10-26T03:41:40;97719.66;;;11.97;77.35
75146;BME280;63641;46.526;24.612;2022-10-26T03:44:07;97717.75;;;11.92;77.28
75146;BME280;63641;46.526;24.612;2022-10-26T03:46:34;97719.66;;;11.92;77.16
75146;BME280;63641;46.526;24.612;2022-10-26T03:49:01;97711.03;;;11.84;77.06
75146;BME280;63641;46.526;24.612;2022-10-26T03:51:28;97717.28;;;11.80;76.93
75146;BME280;63641;46.526;24.612;2022-10-26T03:53:54;97717.88;;;11.72;76.93
75146;BME280;63641;46.526;24.612;2022-10-26T03:56:21;97720.31;;;11.63;76.87
75146;BME280;63641;46.526;24.612;2022-10-26T03:58:48;97721.16;;;11.58;76.85
75146;BME280;63641;46.526;24.612;2022-10-26T04:01:15;97726.06;;;11.56;77.04
75146;BME280;63641;46.526;24.612;2022-10-26T04:03:41;97729.31;;;11.53;76.78
75146;BME280;63641;46.526;24.612;2022-10-26T04:06:08;97733.38;;;11.51;76.87
75146;BME280;63641;46.526;24.612;2022-10-26T04:08:35;97739.34;;;11.48;77.31
75146;BME280;63641;46.526;24.612;2022-10-26T04:11:02;97738.84;;;11.46;77.17
75146;BME280;63641;46.526;24.612;2022-10-26T04:13:30;97738.84;;;11.46;77.38
75146;BME280;63641;46.526;24.612;2022-10-26T04:15:57;97733.69;;;11.49;77.37
75146;BME280;63641;46.526;24.612;2022-10-26T04:18:24;97738.81;;;11.51;77.54
75146;BME280;63641;46.526;24.612;2022-10-26T04:20:50;97736.66;;;11.53;77.91
75146;BME280;63641;46.526;24.612;2022-10-26T04:23:18;97732.56;;;11.55;77.76
75146;BME280;63641;46.526;24.612;2022-10-26T04:25:45;97730.13;;;11.54;77.89
75146;BME280;63641;46.526;24.612;2022-10-26T04:28:12;97723.34;;;11.51;78.02
75146;BME280;63641;46.526;24.612;2022-10-26T04:30:40;97730.09;;;11.59;78.26
75146;BME280;63641;46.526;24.612;2022-10-26T04:33:06;97733.88;;;11.63;78.42
75146;BME280;63641;46.526;24.612;2022-10-26T04:35:33;97731.72;;;11.65;78.52
75146;BME280;63641;46.526;24.612;2022-10-26T04:38:02;97733.88;;;11.68;78.65
75146;BME280;63641;46.526;24.612;2022-10-26T04:40:30;97734.94;;;11.72;78.79
75146;BME280;63641;46.526;24.612;2022-10-26T04:42:58;97750.09;;;11.78;78.93
75146;BME280;63641;46.526;24.612;2022-10-26T04:45:25;97740.88;;;11.79;78.85
75146;BME280;63641;46.526;24.612;2022-10-26T04:48:11;97734.91;;;11.77;78.73
75146;BME280;63641;46.526;24.612;2022-10-26T04:50:39;97750.34;;;11.87;78.96
75146;BME280;63641;46.526;24.612;2022-10-26T04:53:07;97746.53;;;11.88;78.84
75146;BME280;63641;46.526;24.612;2022-10-26T04:55:35;97749.50;;;11.92;79.00
75146;BME280;63641;46.526;24.612;2022-10-26T04:58:02;97758.69;;;11.96;78.95
75146;BME280;63641;46.526;24.612;2022-10-26T05:00:29;97757.03;;;12.00;79.18
75146;BME280;63641;46.526;24.612;2022-10-26T05:02:59;97765.44;;;12.03;79.17
75146;BME280;63641;46.526;24.612;2022-10-26T05:05:27;97769.78;;;12.04;79.20
75146;BME280;63641;46.526;24.612;2022-10-26T05:07:55;97764.63;;;12.03;79.35
75146;BME280;63641;46.526;24.612;2022-10-26T05:10:23;97776.28;;;12.08;79.50
75146;BME280;63641;46.526;24.612;2022-10-26T05:12:54;97778.69;;;12.10;79.56
75146;BME280;63641;46.526;24.612;2022-10-26T05:15:21;97781.09;;;12.17;79.42
75146;BME280;63641;46.526;24.612;2022-10-26T05:17:59;97777.59;;;12.16;79.43
75146;BME280;63641;46.526;24.612;2022-10-26T05:20:29;97784.59;;;12.22;79.57
75146;BME280;63641;46.526;24.612;2022-10-26T05:22:58;97782.13;;;12.26;79.48
75146;BME280;63641;46.526;24.612;2022-10-26T05:25:25;97782.97;;;12.26;79.54
75146;BME280;63641;46.526;24.612;2022-10-26T05:27:59;97789.16;;;12.32;79.53
75146;BME280;63641;46.526;24.612;2022-10-26T05:30:27;97792.09;;;12.36;79.57
75146;BME280;63641;46.526;24.612;2022-10-26T05:32:56;97792.91;;;12.36;79.44
75146;BME280;63641;46.526;24.612;2022-10-26T05:35:23;97796.16;;;12.38;79.54
75146;BME280;63641;46.526;24.612;2022-10-26T05:37:52;97792.34;;;12.39;79.50
75146;BME280;63641;46.526;24.612;2022-10-26T05:40:19;97789.34;;;12.41;79.27
75146;BME280;63641;46.526;24.612;2022-10-26T05:42:45;97787.75;;;12.40;79.40
75146;BME280;63641;46.526;24.612;2022-10-26T05:45:13;97805.56;;;12.51;79.62
75146;BME280;63641;46.526;24.612;2022-10-26T05:47:40;97801.53;;;12.48;79.53
75146;BME280;63641;46.526;24.612;2022-10-26T05:50:08;97820.78;;;12.52;79.71
75146;BME280;63641;46.526;24.612;2022-10-26T05:52:44;97812.66;;;12.52;79.68
75146;BME280;63641;46.526;24.612;2022-10-26T05:55:13;97828.88;;;12.57;79.44
75146;BME280;63641;46.526;24.612;2022-10-26T05:57:41;97824.25;;;12.57;79.57
75146;BME280;63641;46.526;24.612;2022-10-26T06:00:17;97826.44;;;12.55;79.64
75146;BME280;63641;46.526;24.612;2022-10-26T06:03:07;97832.66;;;12.61;79.64
75146;BME280;63641;46.526;24.612;2022-10-26T06:05:53;97828.59;;;12.58;79.69
75146;BME280;63641;46.526;24.612;2022-10-26T06:08:21;97833.47;;;12.62;79.75
75146;BME280;63641;46.526;24.612;2022-10-26T06:10:49;97835.38;;;12.61;79.65
75146;BME280;63641;46.526;24.612;2022-10-26T06:13:16;97844.56;;;12.65;79.60
75146;BME280;63641;46.526;24.612;2022-10-26T06:18:38;97851.59;;;12.71;79.55
75146;BME280;63641;46.526;24.612;2022-10-26T06:21:33;97858.66;;;12.72;79.70
75146;BME280;63641;46.526;24.612;2022-10-26T06:27:37;97864.63;;;12.74;79.73
75146;BME280;63641;46.526;24.612;2022-10-26T06:30:06;97866.22;;;12.75;79.64
75146;BME280;63641;46.526;24.612;2022-10-26T06:32:35;97862.97;;;12.73;79.61
75146;BME280;63641;46.526;24.612;2022-10-26T06:37:41;97861.31;;;12.77;79.72
75146;BME280;63641;46.526;24.612;2022-10-26T06:40:12;97867.84;;;12.76;79.68
75146;BME280;63641;46.526;24.612;2022-10-26T06:42:40;97864.56;;;12.79;79.96
75146;BME280;63641;46.526;24.612;2022-10-26T06:45:11;97863.47;;;12.80;79.68
75146;BME280;63641;46.526;24.612;2022-10-26T06:47:53;97867.78;;;12.87;79.72
75146;BME280;63641;46.526;24.612;2022-10-26T06:50:36;97865.81;;;12.92;79.56
75146;BME280;63641;46.526;24.612;2022-10-26T06:55:51;97871.50;;;12.96;79.72
75146;BME280;63641;46.526;24.612;2022-10-26T06:58:19;97886.13;;;13.05;79.60
75146;BME280;63641;46.526;24.612;2022-10-26T07:00:49;97873.88;;;13.08;79.63
75146;BME280;63641;46.526;24.612;2022-10-26T07:03:16;97876.84;;;13.11;79.42
75146;BME280;63641;46.526;24.612;2022-10-26T07:05:43;97868.69;;;13.11;79.38
75146;BME280;63641;46.526;24.612;2022-10-26T07:08:11;97875.44;;;13.14;79.54
75146;BME280;63641;46.526;24.612;2022-10-26T07:10:38;97870.31;;;13.12;79.36
75146;BME280;63641;46.526;24.612;2022-10-26T07:13:05;97882.75;;;13.23;79.29
75146;BME280;63641;46.526;24.612;2022-10-26T07:15:33;97877.81;;;13.25;79.15
75146;BME280;63641;46.526;24.612;2022-10-26T07:18:00;97882.41;;;13.30;79.12
75146;BME280;63641;46.526;24.612;2022-10-26T07:20:28;97875.59;;;13.33;78.93
75146;BME280;63641;46.526;24.612;2022-10-26T07:22:55;97875.03;;;13.36;78.76
75146;BME280;63641;46.526;24.612;2022-10-26T07:25:23;97869.56;;;13.41;78.81
75146;BME280;63641;46.526;24.612;2022-10-26T07:27:50;97863.53;;;13.44;78.57
75146;BME280;63641;46.526;24.612;2022-10-26T07:30:17;97852.13;;;13.42;78.58
75146;BME280;63641;46.526;24.612;2022-10-26T07:32:44;97852.66;;;13.44;78.47
75146;BME280;63641;46.526;24.612;2022-10-26T07:35:11;97865.91;;;13.50;78.28
75146;BME280;63641;46.526;24.612;2022-10-26T07:37:37;97852.03;;;13.52;78.50
75146;BME280;63641;46.526;24.612;2022-10-26T07:40:05;97852.53;;;13.59;78.23
75146;BME280;63641;46.526;24.612;2022-10-26T07:42:33;97864.09;;;13.70;78.10
75146;BME280;63641;46.526;24.612;2022-10-26T07:45:00;97865.94;;;13.74;77.64
75146;BME280;63641;46.526;24.612;2022-10-26T07:47:26;97858.84;;;13.78;77.55
75146;BME280;63641;46.526;24.612;2022-10-26T07:49:53;97874.25;;;13.88;77.44
75146;BME280;63641;46.526;24.612;2022-10-26T07:52:19;97876.81;;;13.98;77.05
75146;BME280;63641;46.526;24.612;2022-10-26T07:54:46;97878.63;;;14.08;77.16
75146;BME280;63641;46.526;24.612;2022-10-26T07:57:15;97880.69;;;14.16;76.92
75146;BME280;63641;46.526;24.612;2022-10-26T07:59:42;97877.41;;;14.19;76.81
75146;BME280;63641;46.526;24.612;2022-10-26T08:02:09;97872.72;;;14.25;76.46
75146;BME280;63641;46.526;24.612;2022-10-26T08:04:36;97883.53;;;14.30;76.18
75146;BME280;63641;46.526;24.612;2022-10-26T08:07:02;97882.31;;;14.41;75.89
75146;BME280;63641;46.526;24.612;2022-10-26T08:09:29;97874.34;;;14.45;75.78
75146;BME280;63641;46.526;24.612;2022-10-26T08:11:56;97881.09;;;14.53;75.90
75146;BME280;63641;46.526;24.612;2022-10-26T08:14:22;97876.50;;;14.48;75.57
75146;BME280;63641;46.526;24.612;2022-10-26T08:16:49;97875.69;;;14.47;75.33
75146;BME280;63641;46.526;24.612;2022-10-26T08:19:18;97880.56;;;14.50;75.49
75146;BME280;63641;46.526;24.612;2022-10-26T08:21:45;97885.16;;;14.55;75.25
75146;BME280;63641;46.526;24.612;2022-10-26T08:24:12;97879.94;;;14.59;75.12
75146;BME280;63641;46.526;24.612;2022-10-26T08:26:38;97886.19;;;14.59;74.90
75146;BME280;63641;46.526;24.612;2022-10-26T08:29:05;97886.69;;;14.61;74.91
75146;BME280;63641;46.526;24.612;2022-10-26T08:31:32;97897.28;;;14.63;74.72
75146;BME280;63641;46.526;24.612;2022-10-26T08:33:58;97898.09;;;14.63;74.49
75146;BME280;63641;46.526;24.612;2022-10-26T08:36:26;97898.09;;;14.63;74.43
75146;BME280;63641;46.526;24.612;2022-10-26T08:38:53;97900.75;;;14.68;74.18
75146;BME280;63641;46.526;24.612;2022-10-26T08:41:44;97906.94;;;14.74;73.98
75146;BME280;63641;46.526;24.612;2022-10-26T08:44:31;97899.00;;;14.78;73.73
75146;BME280;63641;46.526;24.612;2022-10-26T08:49:50;97902.75;;;14.82;73.37
75146;BME280;63641;46.526;24.612;2022-10-26T08:52:21;97903.56;;;14.82;73.29
75146;BME280;63641;46.526;24.612;2022-10-26T08:54:57;97909.53;;;14.84;72.98
75146;BME280;63641;46.526;24.612;2022-10-26T08:57:38;97908.19;;;14.82;72.90
75146;BME280;63641;46.526;24.612;2022-10-26T09:00:11;97906.88;;;14.79;73.09
75146;BME280;63641;46.526;24.612;2022-10-26T09:02:41;97916.38;;;14.82;72.90
75146;BME280;63641;46.526;24.612;2022-10-26T09:05:14;97905.97;;;14.84;72.80
75146;BME280;63641;46.526;24.612;2022-10-26T09:07:54;97909.75;;;14.88;72.52
75146;BME280;63641;46.526;24.612;2022-10-26T09:21:42;97918.03;;;15.15;71.05
75146;BME280;63641;46.526;24.612;2022-10-26T09:29:42;97898.03;;;15.39;70.13
75146;BME280;63641;46.526;24.612;2022-10-26T09:32:16;97903.31;;;15.49;70.08
75146;BME280;63641;46.526;24.612;2022-10-26T09:34:49;97904.28;;;15.58;70.02
75146;BME280;63641;46.526;24.612;2022-10-26T09:37:19;97904.72;;;15.65;69.88
75146;BME280;63641;46.526;24.612;2022-10-26T09:39:55;97900.19;;;15.75;69.64
75146;BME280;63641;46.526;24.612;2022-10-26T09:43:17;97904.13;;;15.82;69.43
75146;BME280;63641;46.526;24.612;2022-10-26T09:47:52;97901.81;;;15.89;68.65
75146;BME280;63641;46.526;24.612;2022-10-26T09:50:30;97905.88;;;15.92;68.45
75146;BME280;63641;46.526;24.612;2022-10-26T09:52:58;97913.47;;;15.95;68.26
75146;BME280;63641;46.526;24.612;2022-10-26T09:55:25;97906.28;;;15.99;68.28
75146;BME280;63641;46.526;24.612;2022-10-26T09:57:55;97910.50;;;16.05;67.70
75146;BME280;63641;46.526;24.612;2022-10-26T10:00:24;97920.94;;;16.03;67.48
75146;BME280;63641;46.526;24.612;2022-10-26T10:02:55;97920.53;;;15.96;67.57
75146;BME280;63641;46.526;24.612;2022-10-26T10:08:20;97926.31;;;15.94;67.17
75146;BME280;63641;46.526;24.612;2022-10-26T10:11:06;97911.72;;;15.85;67.21
75146;BME280;63641;46.526;24.612;2022-10-26T10:13:39;97926.31;;;15.94;67.24
75146;BME280;63641;46.526;24.612;2022-10-26T10:16:09;97924.28;;;16.00;66.92
75146;BME280;63641;46.526;24.612;2022-10-26T10:18:38;97926.50;;;15.98;66.76
75146;BME280;63641;46.526;24.612;2022-10-26T10:21:05;97928.72;;;15.96;66.49
75146;BME280;63641;46.526;24.612;2022-10-26T10:23:51;97930.44;;;15.92;66.67
75146;BME280;63641;46.526;24.612;2022-10-26T10:26:18;97926.47;;;15.84;66.76
75146;BME280;63641;46.526;24.612;2022-10-26T10:28:59;97927.38;;;15.80;66.97
75146;BME280;63641;46.526;24.612;2022-10-26T10:31:28;97922.22;;;15.78;66.79
75146;BME280;63641;46.526;24.612;2022-10-26T10:33:55;97926.47;;;15.84;66.82
75146;BME280;63641;46.526;24.612;2022-10-26T10:36:25;97922.84;;;15.89;66.75
75146;BME280;63641;46.526;24.612;2022-10-26T10:38:52;97915.19;;;15.91;66.75
75146;BME280;63641;46.526;24.612;2022-10-26T10:41:29;97923.47;;;16.00;66.65
75146;BME280;63641;46.526;24.612;2022-10-26T10:44:21;97927.09;;;15.95;66.58
75146;BME280;63641;46.526;24.612;2022-10-26T10:46:49;97924.97;;;15.92;66.52
75146;BME280;63641;46.526;24.612;2022-10-26T10:49:22;97924.44;;;15.90;66.50
75146;BME280;63641;46.526;24.612;2022-10-26T10:51:50;97926.09;;;15.91;66.08
75146;BME280;63641;46.526;24.612;2022-10-26T10:54:28;97930.44;;;15.92;66.36
75146;BME280;63641;46.526;24.612;2022-10-26T10:57:17;97926.50;;;15.98;66.54
75146;BME280;63641;46.526;24.612;2022-10-26T11:00:08;97921.75;;;16.04;66.47
75146;BME280;63641;46.526;24.612;2022-10-26T11:05:23;97918.09;;;16.08;65.99
75146;BME280;63641;46.526;24.612;2022-10-26T11:08:15;97923.28;;;16.10;65.75
75146;BME280;63641;46.526;24.612;2022-10-26T11:11:08;97931.53;;;16.05;65.57
75146;BME280;63641;46.526;24.612;2022-10-26T11:16:30;97934.28;;;16.05;65.17
75146;BME280;63641;46.526;24.612;2022-10-26T11:19:02;97935.09;;;16.05;65.02
75146;BME280;63641;46.526;24.612;2022-10-26T11:21:35;97925.41;;;16.13;64.87
75146;BME280;63641;46.526;24.612;2022-10-26T11:24:14;97928.31;;;16.30;64.83
75146;BME280;63641;46.526;24.612;2022-10-26T11:26:53;97931.97;;;16.53;64.24
75146;BME280;63641;46.526;24.612;2022-10-26T11:32:42;97923.66;;;16.72;63.10
75146;BME280;63641;46.526;24.612;2022-10-26T11:35:23;97930.00;;;16.67;62.71
75146;BME280;63641;46.526;24.612;2022-10-26T11:37:59;97911.72;;;16.54;62.89
75146;BME280;63641;46.526;24.612;2022-10-26T11:40:35;97930.34;;;16.52;62.65
75146;BME280;63641;46.526;24.612;2022-10-26T11:43:15;97928.44;;;16.39;62.49
75146;BME280;63641;46.526;24.612;2022-10-26T11:45:56;97928.13;;;16.27;62.78
75146;BME280;63641;46.526;24.612;2022-10-26T11:51:54;97916.00;;;16.33;62.59
75146;BME280;63641;46.526;24.612;2022-10-26T11:54:47;97923.06;;;16.48;61.99
75146;BME280;63641;46.526;24.612;2022-10-26T11:57:18;97916.47;;;16.62;61.63
75146;BME280;63641;46.526;24.612;2022-10-26T11:59:53;97912.44;;;16.74;61.17
75146;BME280;63641;46.526;24.612;2022-10-26T12:02:24;97914.03;;;16.75;61.03
75146;BME280;63641;46.526;24.612;2022-10-26T12:05:01;97929.53;;;16.79;60.63
75146;BME280;63641;46.526;24.612;2022-10-26T12:07:31;97932.66;;;16.73;60.78
75146;BME280;63641;46.526;24.612;2022-10-26T12:09:59;97924.53;;;16.67;60.55
75146;BME280;63641;46.526;24.612;2022-10-26T12:12:43;97926.28;;;16.63;60.63
75146;BME280;63641;46.526;24.612;2022-10-26T12:15:27;97935.59;;;16.62;60.63
75146;BME280;63641;46.526;24.612;2022-10-26T12:18:28;97928.91;;;16.69;60.16
75146;BME280;63641;46.526;24.612;2022-10-26T12:21:16;97920.63;;;16.74;60.07
75146;BME280;63641;46.526;24.612;2022-10-26T12:31:57;97938.63;;;16.75;59.75
75146;BME280;63641;46.526;24.612;2022-10-26T12:37:27;97946.13;;;16.55;60.05
75146;BME280;63641;46.526;24.612;2022-10-26T12:42:57;97955.31;;;16.46;59.95
75146;BME280;63641;46.526;24.612;2022-10-26T12:45:24;97940.69;;;16.28;60.00
75146;BME280;63641;46.526;24.612;2022-10-26T12:50:22;97958.66;;;16.15;60.37
75146;BME280;63641;46.526;24.612;2022-10-26T12:53:06;97959.19;;;16.17;60.31
75146;BME280;63641;46.526;24.612;2022-10-26T13:01:27;97951.59;;;16.14;60.56
75146;BME280;63641;46.526;24.612;2022-10-26T13:12:21;97955.41;;;15.99;61.23
75146;BME280;63641;46.526;24.612;2022-10-26T13:17:56;97956.91;;;16.05;60.83
75146;BME280;63641;46.526;24.612;2022-10-26T13:20:24;97958.44;;;16.11;60.81
75146;BME280;63641;46.526;24.612;2022-10-26T13:22:52;97951.28;;;16.15;60.30
75146;BME280;63641;46.526;24.612;2022-10-26T13:25:25;97960.78;;;16.18;60.58
75146;BME280;63641;46.526;24.612;2022-10-26T13:28:06;97957.47;;;16.21;60.50
75146;BME280;63641;46.526;24.612;2022-10-26T13:33:00;97946.94;;;16.14;60.16
75146;BME280;63641;46.526;24.612;2022-10-26T13:35:30;97948.25;;;16.17;60.12
75146;BME280;63641;46.526;24.612;2022-10-26T13:37:59;97952.28;;;16.19;60.06
75146;BME280;63641;46.526;24.612;2022-10-26T13:40:35;97960.69;;;16.23;60.25
75146;BME280;63641;46.526;24.612;2022-10-26T13:43:05;97957.94;;;16.23;60.32
75146;BME280;63641;46.526;24.612;2022-10-26T13:45:40;97961.69;;;16.27;60.08
75146;BME280;63641;46.526;24.612;2022-10-26T13:48:17;97956.03;;;16.24;59.95
75146;BME280;63641;46.526;24.612;2022-10-26T13:51:20;97960.19;;;16.21;59.72
75146;BME280;63641;46.526;24.612;2022-10-26T13:53:57;97951.59;;;16.14;59.91
75146;BME280;63641;46.526;24.612;2022-10-26T13:56:34;97962.19;;;16.15;59.87
75146;BME280;63641;46.526;24.612;2022-10-26T13:59:11;97959.56;;;16.10;59.49
75146;BME280;63641;46.526;24.612;2022-10-26T14:01:38;97962.09;;;16.07;59.92
75146;BME280;63641;46.526;24.612;2022-10-26T14:06:48;97961.28;;;16.06;59.83
75146;BME280;63641;46.526;24.612;2022-10-26T14:09:17;97955.09;;;16.01;59.97
75146;BME280;63641;46.526;24.612;2022-10-26T14:11:53;97967.94;;;16.00;60.07
75146;BME280;63641;46.526;24.612;2022-10-26T14:14:29;97962.88;;;15.93;60.22
75146;BME280;63641;46.526;24.612;2022-10-26T14:16:57;97970.25;;;15.93;60.37
75146;BME280;63641;46.526;24.612;2022-10-26T14:19:44;97964.91;;;15.88;60.54
75146;BME280;63641;46.526;24.612;2022-10-26T14:22:21;97967.69;;;15.83;60.59
75146;BME280;63641;46.526;24.612;2022-10-26T14:24:54;97967.00;;;15.77;60.39
75146;BME280;63641;46.526;24.612;2022-10-26T14:27:24;97980.41;;;15.74;60.80
75146;BME280;63641;46.526;24.612;2022-10-26T14:29:53;97976.22;;;15.62;61.12
75146;BME280;63641;46.526;24.612;2022-10-26T14:32:39;97976.81;;;15.59;61.31
75146;BME280;63641;46.526;24.612;2022-10-26T14:35:11;97988.59;;;15.55;61.81
75146;BME280;63641;46.526;24.612;2022-10-26T14:37:45;97988.19;;;15.48;61.99
75146;BME280;63641;46.526;24.612;2022-10-26T14:40:17;97981.75;;;15.38;62.03
75146;BME280;63641;46.526;24.612;2022-10-26T14:42:47;97982.44;;;15.30;62.36
75146;BME280;63641;46.526;24.612;2022-10-26T14:45:30;97979.56;;;15.21;62.53
75146;BME280;63641;46.526;24.612;2022-10-26T14:48:33;97978.09;;;15.10;62.92
75146;BME280;63641;46.526;24.612;2022-10-26T14:51:17;97986.41;;;15.00;62.80
75146;BME280;63641;46.526;24.612;2022-10-26T14:53:50;97988.16;;;14.91;63.28
75146;BME280;63641;46.526;24.612;2022-10-26T14:59:17;97988.47;;;14.65;63.85
75146;BME280;63641;46.526;24.612;2022-10-26T15:04:32;97983.84;;;14.42;64.48
75146;BME280;63641;46.526;24.612;2022-10-26T15:09:49;97984.59;;;14.23;64.69
75146;BME280;63641;46.526;24.612;2022-10-26T15:12:34;97992.84;;;14.13;64.94
75146;BME280;63641;46.526;24.612;2022-10-26T15:17:47;97993.63;;;13.90;64.80